Cash, South Dakota
Current Conditions -  °F | °C
As of 2:53 PM on Sunday 23 Nov 2014 (Local Time) from KHEI Reporting Station
Overcast Overcast  
Wind Chill:   Ceiling: 2000
Heat Index: 26°   Visibility: 10mi
Dew Point: 18°   Wind: 32mph
Humidity: 71%   Direction: 310°NW
Pressure: 29.69"   Gusts: 44mph
Location:  45.5161°N, 102.519°W
Report Text: KHEI 232153Z AUTO 31028G38KT 10SM OVC020 M03/M08 A2969 RMK AO2 PK WND 31038/2144 SLP079 T10331078
Loading
Personal Weather Stations






























Interactive Weather Map New forecast layout! Learn more

10-Day Weather Forecast

Advertisements
Track Severe Weather on mobile